Time;durP1;ratioP1;P1;durP2;ratioP2;P2;SDS_P1;SDS_P2;PMS_P1;PMS_P2;Temp;Humidity;BMP_temperature;BMP_pressure;BME280_temperature;BME280_humidity;BME280_pressure;Samples;Min_cycle;Max_cycle;Signal;HPM_P1;HPM_P2
2022/09/20 00:01:59;;;;;;;10.30;1.98;;;9.10;99.90;;;;;;5059445;28;20506;-82
2022/09/20 00:04:25;;;;;;;10.05;2.20;;;9.00;99.90;;;;;;5055548;28;20043;-81
2022/09/20 00:06:51;;;;;;;9.73;1.95;;;9.00;99.90;;;;;;5061214;28;20450;-82
2022/09/20 00:09:16;;;;;;;11.43;2.25;;;9.00;99.90;;;;;;5017288;28;20051;-81
2022/09/20 00:11:44;;;;;;;7.68;1.52;;;9.10;99.90;;;;;;5065531;28;20719;-81
2022/09/20 00:14:09;;;;;;;8.27;2.03;;;9.00;99.90;;;;;;5034396;28;20049;-81
2022/09/20 00:16:39;;;;;;;8.30;1.80;;;9.00;99.90;;;;;;5047605;28;20075;-81
2022/09/20 00:19:06;;;;;;;10.63;2.58;;;9.00;99.90;;;;;;5065091;28;20044;-73
2022/09/20 00:21:35;;;;;;;10.00;2.10;;;8.90;99.90;;;;;;5059748;28;20051;-73
2022/09/20 00:24:04;;;;;;;9.02;1.55;;;8.90;99.90;;;;;;5033412;28;20045;-82
2022/09/20 00:26:30;;;;;;;11.65;1.98;;;8.90;99.90;;;;;;5050596;28;21443;-81
2022/09/20 00:28:57;;;;;;;8.80;1.80;;;8.90;99.90;;;;;;5050267;28;20047;-82
2022/09/20 00:31:23;;;;;;;11.30;2.20;;;8.90;99.90;;;;;;5047847;28;20124;-81
2022/09/20 00:36:33;;;;;;;10.35;2.03;;;8.90;99.90;;;;;;5064781;28;20084;-82
2022/09/20 00:39:00;;;;;;;8.45;1.60;;;8.80;99.90;;;;;;5065272;28;20075;-81
2022/09/20 00:41:28;;;;;;;11.52;1.98;;;8.80;99.90;;;;;;5032735;28;20049;-81
2022/09/20 00:43:54;;;;;;;9.07;2.08;;;8.80;99.90;;;;;;5021117;28;20048;-81
2022/09/20 00:46:23;;;;;;;11.00;1.63;;;8.70;99.90;;;;;;5049098;28;20049;-81
2022/09/20 00:48:52;;;;;;;9.35;2.40;;;8.70;99.90;;;;;;5068434;28;20086;-81
2022/09/20 00:51:25;;;;;;;7.20;1.65;;;8.60;99.90;;;;;;5062767;28;20048;-82
2022/09/20 00:53:55;;;;;;;9.27;1.80;;;8.60;99.90;;;;;;5066625;28;20060;-81
2022/09/20 00:56:28;;;;;;;6.53;1.95;;;8.50;99.90;;;;;;5047542;28;20082;-81
2022/09/20 00:59:26;;;;;;;8.63;2.00;;;8.50;99.90;;;;;;5055005;28;20511;-82
2022/09/20 01:01:56;;;;;;;9.60;1.92;;;8.50;99.90;;;;;;5050935;28;20047;-82
2022/09/20 01:04:26;;;;;;;6.70;1.83;;;8.50;99.90;;;;;;5060247;28;20045;-81
2022/09/20 01:06:55;;;;;;;10.35;2.13;;;8.40;99.90;;;;;;5063859;28;20433;-82
2022/09/20 01:09:20;;;;;;;10.45;2.20;;;8.40;99.90;;;;;;5053209;28;20054;-81
2022/09/20 01:11:48;;;;;;;5.82;1.52;;;8.40;99.90;;;;;;5040476;28;20643;-81
2022/09/20 01:14:17;;;;;;;14.35;2.08;;;8.40;99.90;;;;;;5047565;28;20132;-81
2022/09/20 01:16:43;;;;;;;12.27;2.40;;;8.40;99.90;;;;;;5048099;28;20118;-82
2022/09/20 01:19:47;;;;;;;7.93;1.70;;;8.40;99.90;;;;;;5063036;28;20061;-81
2022/09/20 01:23:06;;;;;;;8.02;1.85;;;8.40;99.90;;;;;;5054948;28;20060;-81
2022/09/20 01:25:53;;;;;;;6.45;1.70;;;8.30;99.90;;;;;;5017894;28;20127;-81
2022/09/20 01:28:20;;;;;;;7.20;1.20;;;8.40;99.90;;;;;;5059317;28;20392;-82
2022/09/20 01:31:09;;;;;;;9.18;1.70;;;8.40;99.90;;;;;;5046772;28;20048;-81
2022/09/20 01:33:50;;;;;;;8.63;1.83;;;8.40;99.90;;;;;;5059482;28;20044;-82
2022/09/20 01:36:32;;;;;;;8.55;1.80;;;8.40;99.90;;;;;;5043423;28;20041;-81
2022/09/20 01:39:17;;;;;;;11.77;2.08;;;8.40;99.90;;;;;;5047072;28;20044;-82
2022/09/20 01:42:04;;;;;;;10.02;1.92;;;8.40;99.90;;;;;;5062269;28;20060;-82
2022/09/20 01:44:47;;;;;;;11.07;1.98;;;8.40;99.90;;;;;;5048361;28;20036;-81
2022/09/20 01:47:18;;;;;;;8.75;2.25;;;8.40;99.90;;;;;;5044118;28;20041;-81
2022/09/20 01:49:56;;;;;;;9.63;1.90;;;8.40;99.90;;;;;;5062949;28;20095;-82
2022/09/20 01:52:44;;;;;;;13.65;2.20;;;8.50;99.90;;;;;;5060107;28;20040;-81
2022/09/20 01:55:43;;;;;;;10.07;2.40;;;8.40;99.90;;;;;;5040824;28;20511;-81
2022/09/20 01:58:43;;;;;;;7.05;1.70;;;8.40;99.90;;;;;;5045592;28;20052;-82
2022/09/20 02:01:18;;;;;;;7.22;1.70;;;8.40;99.90;;;;;;5057490;28;20076;-81
2022/09/20 02:04:12;;;;;;;7.80;1.52;;;8.30;99.90;;;;;;5041748;28;20052;-81
2022/09/20 02:07:31;;;;;;;9.57;2.10;;;8.40;99.90;;;;;;5045740;28;20045;-81
2022/09/20 02:10:26;;;;;;;9.13;1.95;;;8.40;99.90;;;;;;5020795;28;20045;-82
2022/09/20 02:13:00;;;;;;;9.77;1.80;;;8.30;99.90;;;;;;5046964;28;20047;-81
2022/09/20 02:15:29;;;;;;;8.98;1.63;;;8.30;99.90;;;;;;5038905;28;20041;-81
2022/09/20 02:18:29;;;;;;;9.15;1.80;;;8.30;99.90;;;;;;5035621;28;20079;-81
2022/09/20 02:21:28;;;;;;;10.30;1.83;;;8.30;99.90;;;;;;5052725;28;20053;-81
2022/09/20 02:24:15;;;;;;;7.53;1.95;;;8.30;99.90;;;;;;5058554;28;20053;-82
2022/09/20 02:27:01;;;;;;;10.63;1.70;;;8.30;99.90;;;;;;5049446;28;20041;-81
2022/09/20 02:29:42;;;;;;;8.50;1.90;;;8.30;99.90;;;;;;5043155;28;20048;-81
2022/09/20 02:32:17;;;;;;;9.48;1.38;;;8.30;99.90;;;;;;5054411;28;20045;-81
2022/09/20 02:34:49;;;;;;;9.48;1.65;;;8.30;99.90;;;;;;5057266;28;20045;-82
2022/09/20 02:37:30;;;;;;;9.30;1.90;;;8.30;99.90;;;;;;5043481;28;20539;-81
2022/09/20 02:40:07;;;;;;;7.53;1.95;;;8.30;99.90;;;;;;5038138;28;20119;-82
2022/09/20 02:42:43;;;;;;;8.45;1.80;;;8.30;99.90;;;;;;5042445;28;20036;-82
2022/09/20 02:45:25;;;;;;;10.10;2.53;;;8.30;99.90;;;;;;5033703;28;20658;-81
2022/09/20 02:47:56;;;;;;;7.10;1.90;;;8.30;99.90;;;;;;5056932;28;20511;-82
2022/09/20 02:50:46;;;;;;;8.85;1.92;;;8.30;99.90;;;;;;5048727;28;20061;-81
2022/09/20 02:53:26;;;;;;;8.43;2.30;;;8.30;99.90;;;;;;5060858;28;20495;-81
2022/09/20 02:56:25;;;;;;;12.57;2.22;;;8.30;99.90;;;;;;5049692;28;20056;-81
2022/09/20 02:59:20;;;;;;;11.32;1.98;;;8.30;99.90;;;;;;5047596;28;20060;-81
2022/09/20 03:01:58;;;;;;;8.30;2.08;;;8.30;99.90;;;;;;5039992;28;20083;-81
2022/09/20 03:04:33;;;;;;;11.02;2.40;;;8.20;99.90;;;;;;5041932;28;20492;-81
2022/09/20 03:06:59;;;;;;;8.75;2.03;;;8.20;99.90;;;;;;5030006;28;20088;-81
2022/09/20 03:09:34;;;;;;;10.95;2.60;;;8.20;99.90;;;;;;5035860;28;20064;-81
2022/09/20 03:12:13;;;;;;;13.52;2.22;;;8.20;99.90;;;;;;5043155;28;20119;-81
2022/09/20 03:15:00;;;;;;;13.70;2.53;;;8.20;99.90;;;;;;5044100;28;20617;-81
2022/09/20 03:17:41;;;;;;;11.45;2.65;;;8.20;99.90;;;;;;5033898;28;20668;-81
2022/09/20 03:20:32;;;;;;;9.02;1.70;;;8.30;99.90;;;;;;5034221;28;20124;-81
2022/09/20 03:23:36;;;;;;;11.25;2.58;;;8.20;99.90;;;;;;5032558;28;20044;-81
2022/09/20 03:26:15;;;;;;;6.90;1.40;;;8.30;99.90;;;;;;5048477;28;20052;-81
2022/09/20 03:28:58;;;;;;;6.53;2.50;;;8.30;99.90;;;;;;5056199;28;20107;-81
2022/09/20 03:31:43;;;;;;;8.70;2.22;;;8.30;99.90;;;;;;5056680;28;20580;-82
2022/09/20 03:34:26;;;;;;;8.05;1.85;;;8.30;99.90;;;;;;5055512;28;20403;-81
2022/09/20 03:36:58;;;;;;;8.93;2.08;;;8.30;99.90;;;;;;5051468;28;20135;-81
2022/09/20 03:39:58;;;;;;;7.03;2.20;;;8.40;99.90;;;;;;5049828;28;20041;-82
2022/09/20 03:42:26;;;;;;;9.15;2.13;;;8.40;99.90;;;;;;5053405;28;20399;-81
2022/09/20 03:45:19;;;;;;;8.23;2.00;;;8.40;99.90;;;;;;5056919;28;20064;-81
2022/09/20 03:48:09;;;;;;;7.43;1.58;;;8.50;99.90;;;;;;5052374;28;20869;-81
2022/09/20 03:50:41;;;;;;;9.35;1.95;;;8.50;99.90;;;;;;5044053;28;20641;-82
2022/09/20 03:53:32;;;;;;;9.50;2.38;;;8.50;99.90;;;;;;5058932;28;20068;-82
2022/09/20 03:56:17;;;;;;;6.63;2.00;;;8.60;99.90;;;;;;5043187;28;20054;-81
2022/09/20 03:59:02;;;;;;;7.18;1.67;;;8.60;99.90;;;;;;5043292;28;20086;-81
2022/09/20 04:01:41;;;;;;;9.27;2.72;;;8.70;99.90;;;;;;5048610;28;20878;-82
2022/09/20 04:04:21;;;;;;;10.07;2.05;;;8.70;99.90;;;;;;5039159;28;20056;-81
2022/09/20 04:07:04;;;;;;;10.60;3.03;;;8.90;99.90;;;;;;5047183;28;20044;-81
2022/09/20 04:10:04;;;;;;;7.25;1.98;;;8.80;99.90;;;;;;5050874;28;20044;-82
2022/09/20 04:12:39;;;;;;;10.93;2.33;;;8.80;99.90;;;;;;5049482;28;20049;-81
2022/09/20 04:15:43;;;;;;;9.18;2.25;;;8.90;99.90;;;;;;5058960;28;20403;-82
2022/09/20 04:18:30;;;;;;;9.02;2.38;;;8.90;99.90;;;;;;5054892;28;20104;-82
2022/09/20 04:21:14;;;;;;;8.73;2.17;;;9.00;99.90;;;;;;5036362;28;20053;-82
2022/09/20 04:24:03;;;;;;;8.27;1.80;;;9.00;99.90;;;;;;5039778;28;20091;-81
2022/09/20 04:26:31;;;;;;;7.18;1.75;;;9.00;99.90;;;;;;5049534;28;20574;-81
2022/09/20 04:29:25;;;;;;;9.23;1.70;;;9.00;99.90;;;;;;5051784;28;20053;-81
2022/09/20 04:32:27;;;;;;;8.68;1.80;;;9.10;99.90;;;;;;5041191;28;20052;-81
2022/09/20 04:37:45;;;;;;;7.20;1.40;;;9.10;99.90;;;;;;5043446;28;20461;-81
2022/09/20 04:40:14;;;;;;;10.07;1.90;;;9.10;99.90;;;;;;5061410;28;20032;-81
2022/09/20 04:43:16;;;;;;;6.15;1.63;;;9.20;99.90;;;;;;5050261;28;20044;-81
2022/09/20 04:46:04;;;;;;;5.93;1.58;;;9.20;99.90;;;;;;5048835;28;20123;-81
2022/09/20 04:48:46;;;;;;;7.43;2.15;;;9.20;99.90;;;;;;5048046;28;20049;-81
2022/09/20 04:51:24;;;;;;;5.68;1.95;;;9.20;99.90;;;;;;5035839;28;20060;-81
2022/09/20 04:54:27;;;;;;;10.80;2.25;;;9.30;99.90;;;;;;5050117;28;20734;-82
2022/09/20 04:57:13;;;;;;;6.00;1.88;;;9.30;99.90;;;;;;5049890;28;20056;-82
2022/09/20 04:59:48;;;;;;;5.55;1.40;;;9.30;99.90;;;;;;5058030;28;20052;-82
2022/09/20 05:02:19;;;;;;;7.50;1.88;;;9.40;99.90;;;;;;5049854;28;20059;-82
2022/09/20 05:05:07;;;;;;;7.03;1.73;;;9.40;99.90;;;;;;5048927;28;21013;-82
2022/09/20 05:07:41;;;;;;;3.67;1.30;;;9.40;99.90;;;;;;5035251;28;20064;-82
2022/09/20 05:10:42;;;;;;;5.97;1.65;;;9.40;99.90;;;;;;5031129;28;20111;-82
2022/09/20 05:13:33;;;;;;;8.55;1.90;;;9.40;99.90;;;;;;5037414;28;20116;-82
2022/09/20 05:16:27;;;;;;;4.30;1.10;;;9.40;99.90;;;;;;5045315;28;20056;-81
2022/09/20 05:19:20;;;;;;;7.90;1.80;;;9.40;99.90;;;;;;5040674;28;20059;-82
2022/09/20 05:22:02;;;;;;;5.47;1.88;;;9.40;99.90;;;;;;5053473;28;20080;-82
2022/09/20 05:25:06;;;;;;;4.80;1.80;;;9.50;99.90;;;;;;5050841;28;20052;-82
2022/09/20 05:27:45;;;;;;;8.25;3.60;;;9.50;99.90;;;;;;5052515;28;20503;-82
2022/09/20 05:30:16;;;;;;;8.88;3.63;;;9.50;99.90;;;;;;5058564;28;20049;-82
2022/09/20 05:33:09;;;;;;;9.90;4.50;;;9.50;99.90;;;;;;5052647;28;20056;-82
2022/09/20 05:35:53;;;;;;;8.02;5.25;;;9.50;99.90;;;;;;5039223;28;20098;-82
2022/09/20 05:38:42;;;;;;;6.88;3.90;;;9.50;99.90;;;;;;5051743;28;20087;-82
2022/09/20 05:41:28;;;;;;;6.90;3.90;;;9.60;99.90;;;;;;5059116;28;20086;-82
2022/09/20 05:44:25;;;;;;;8.25;3.05;;;9.70;99.90;;;;;;5043977;28;20045;-82
2022/09/20 05:47:40;;;;;;;7.30;2.90;;;9.80;99.90;;;;;;5040009;28;20557;-82
2022/09/20 05:50:08;;;;;;;7.18;2.25;;;9.80;99.90;;;;;;5005310;28;20038;-82
2022/09/20 05:52:43;;;;;;;8.30;2.47;;;9.80;99.90;;;;;;4988219;28;20049;-83
2022/09/20 05:55:19;;;;;;;8.15;2.67;;;9.80;99.90;;;;;;5032946;28;20136;-83
2022/09/20 05:58:22;;;;;;;9.48;2.58;;;9.90;99.90;;;;;;5057214;28;20172;-82
2022/09/20 06:01:13;;;;;;;7.78;1.95;;;9.90;99.90;;;;;;5050735;28;20045;-82
2022/09/20 06:03:56;;;;;;;6.25;2.08;;;9.90;99.90;;;;;;5035712;28;20083;-82
2022/09/20 06:06:29;;;;;;;7.55;1.80;;;9.90;99.90;;;;;;5036604;28;20055;-82
2022/09/20 06:09:07;;;;;;;9.93;3.13;;;10.00;99.90;;;;;;5040343;28;20109;-82
2022/09/20 06:11:56;;;;;;;4.75;2.05;;;10.00;99.90;;;;;;5043391;28;20681;-82
2022/09/20 06:14:31;;;;;;;5.45;1.75;;;10.00;99.90;;;;;;5047898;28;20139;-82
2022/09/20 06:17:26;;;;;;;7.78;2.70;;;10.00;99.90;;;;;;5058817;28;20040;-82
2022/09/20 06:20:14;;;;;;;7.57;2.15;;;10.00;99.90;;;;;;5041174;28;20149;-81
2022/09/20 06:22:48;;;;;;;8.80;2.30;;;10.10;99.90;;;;;;5057646;28;20060;-81
2022/09/20 06:25:28;;;;;;;8.85;3.20;;;10.10;99.90;;;;;;5042717;28;20454;-81
2022/09/20 06:28:14;;;;;;;7.20;2.33;;;10.20;99.90;;;;;;5060619;28;20093;-81
2022/09/20 06:30:46;;;;;;;9.45;2.63;;;10.20;99.90;;;;;;5055189;28;20127;-81
2022/09/20 06:33:17;;;;;;;8.25;2.45;;;10.20;99.90;;;;;;5041369;28;20047;-80
2022/09/20 06:35:42;;;;;;;8.45;2.97;;;10.20;99.90;;;;;;5043474;28;20072;-80
2022/09/20 06:41:28;;;;;;;8.10;2.20;;;10.30;99.90;;;;;;5035940;28;20051;-81
2022/09/20 06:43:58;;;;;;;8.27;3.35;;;10.30;99.90;;;;;;5042688;28;20044;-81
2022/09/20 06:46:28;;;;;;;9.57;3.10;;;10.30;99.90;;;;;;5043952;28;20141;-81
2022/09/20 06:48:55;;;;;;;11.85;3.38;;;10.40;99.90;;;;;;5043056;28;20036;-81
2022/09/20 06:51:22;;;;;;;5.97;2.35;;;10.40;99.90;;;;;;5049924;28;20412;-81
2022/09/20 06:53:49;;;;;;;6.43;2.45;;;10.40;99.90;;;;;;5040827;28;20514;-81
2022/09/20 06:56:21;;;;;;;7.60;2.38;;;10.50;99.90;;;;;;5035780;28;20052;-81
2022/09/20 06:58:47;;;;;;;8.95;2.35;;;10.50;99.90;;;;;;5040039;28;20045;-81
2022/09/20 07:01:14;;;;;;;7.32;2.10;;;10.50;99.90;;;;;;5042683;28;20048;-82
2022/09/20 07:03:41;;;;;;;7.28;2.42;;;10.60;99.90;;;;;;5040535;28;20047;-81
2022/09/20 07:06:10;;;;;;;6.00;1.83;;;10.70;99.90;;;;;;5052670;28;20040;-82
2022/09/20 07:08:37;;;;;;;8.07;2.20;;;10.70;99.90;;;;;;5035486;28;20279;-82
2022/09/20 07:11:13;;;;;;;7.90;2.65;;;10.80;99.90;;;;;;5052250;28;20310;-82
2022/09/20 07:13:39;;;;;;;8.60;2.53;;;11.00;99.90;;;;;;5055402;28;20523;-83
2022/09/20 07:16:15;;;;;;;10.52;2.45;;;11.10;99.90;;;;;;5023181;28;20056;-82
2022/09/20 07:18:42;;;;;;;6.78;2.03;;;11.10;99.90;;;;;;5049394;28;20040;-82
2022/09/20 07:21:13;;;;;;;6.45;2.20;;;11.10;99.90;;;;;;5036131;28;20044;-83
2022/09/20 07:23:38;;;;;;;6.07;2.00;;;11.10;99.90;;;;;;5053355;28;20040;-82
2022/09/20 07:26:05;;;;;;;9.40;2.42;;;11.10;99.90;;;;;;5056423;28;20055;-83
2022/09/20 07:28:33;;;;;;;8.70;2.50;;;11.20;99.90;;;;;;5026240;28;20056;-82
2022/09/20 07:30:59;;;;;;;7.32;2.40;;;11.20;99.90;;;;;;5040543;28;20053;-82
2022/09/20 07:33:25;;;;;;;8.15;2.90;;;11.30;99.90;;;;;;5056508;28;20036;-83
2022/09/20 07:35:54;;;;;;;7.30;2.42;;;11.30;99.90;;;;;;5021451;28;20484;-82
2022/09/20 07:38:22;;;;;;;9.43;3.35;;;11.40;99.90;;;;;;5039037;28;20044;-82
2022/09/20 07:40:59;;;;;;;9.20;2.67;;;11.40;99.90;;;;;;5036913;28;20056;-82
2022/09/20 07:43:25;;;;;;;7.10;2.95;;;11.50;99.90;;;;;;5052520;28;20049;-82
2022/09/20 07:45:53;;;;;;;9.80;2.60;;;11.50;99.90;;;;;;5025507;28;20039;-82
2022/09/20 07:48:23;;;;;;;8.55;2.85;;;11.60;99.90;;;;;;5052736;28;20151;-82
2022/09/20 07:50:51;;;;;;;9.57;2.63;;;11.60;99.90;;;;;;5040335;28;20084;-82
2022/09/20 07:53:17;;;;;;;7.95;2.85;;;11.80;99.90;;;;;;5052782;28;20047;-82
2022/09/20 07:55:42;;;;;;;6.93;2.58;;;11.80;99.90;;;;;;5041607;28;20045;-82
2022/09/20 07:58:08;;;;;;;8.48;2.40;;;11.90;99.90;;;;;;5024106;28;20105;-81
2022/09/20 08:00:34;;;;;;;7.60;2.33;;;12.00;99.90;;;;;;5020853;28;20064;-82
2022/09/20 08:03:00;;;;;;;5.88;2.05;;;12.10;99.90;;;;;;5042482;28;20519;-82
2022/09/20 08:05:26;;;;;;;11.02;2.22;;;12.20;99.90;;;;;;5025246;28;20069;-82
2022/09/20 08:07:52;;;;;;;9.32;1.75;;;12.30;99.90;;;;;;5039983;28;20053;-81
2022/09/20 08:10:17;;;;;;;6.53;1.50;;;12.40;99.90;;;;;;5057752;28;20064;-81
2022/09/20 08:12:44;;;;;;;5.88;1.52;;;12.40;99.90;;;;;;5023454;28;20105;-82
2022/09/20 08:15:10;;;;;;;9.93;1.83;;;12.50;99.90;;;;;;5039865;28;20037;-82
2022/09/20 08:17:45;;;;;;;6.18;1.25;;;12.60;99.90;;;;;;5038211;28;20326;-81
2022/09/20 08:20:11;;;;;;;9.07;1.67;;;12.60;99.90;;;;;;5040232;28;20479;-81
2022/09/20 08:22:40;;;;;;;10.88;2.65;;;12.80;99.90;;;;;;5022383;28;20076;-81
2022/09/20 08:25:06;;;;;;;7.30;1.40;;;12.90;99.90;;;;;;5043561;28;20795;-81
2022/09/20 08:27:33;;;;;;;4.78;1.10;;;13.10;99.90;;;;;;5045478;28;20051;-81
2022/09/20 08:30:00;;;;;;;6.63;0.85;;;13.20;99.90;;;;;;5061314;28;20541;-82
2022/09/20 08:32:25;;;;;;;7.35;1.20;;;13.20;99.90;;;;;;5016747;28;20132;-82
2022/09/20 08:34:51;;;;;;;3.38;0.90;;;13.20;99.90;;;;;;5045155;28;20688;-81
2022/09/20 08:37:18;;;;;;;4.93;1.20;;;13.20;99.90;;;;;;5011983;28;20044;-74
2022/09/20 08:39:44;;;;;;;6.55;1.00;;;13.20;99.90;;;;;;5057507;28;20048;-73
2022/09/20 08:42:23;;;;;;;5.68;1.05;;;13.30;99.90;;;;;;5046251;28;20363;-81
2022/09/20 08:44:54;;;;;;;7.10;1.38;;;13.60;99.90;;;;;;5060615;28;20531;-81
2022/09/20 08:47:23;;;;;;;6.53;0.93;;;13.90;99.90;;;;;;5046807;28;20431;-81
2022/09/20 08:49:54;;;;;;;4.85;0.98;;;14.20;99.90;;;;;;5038981;28;20048;-81
2022/09/20 08:52:29;;;;;;;4.93;1.10;;;14.40;99.90;;;;;;5029943;28;20052;-81
2022/09/20 08:54:58;;;;;;;6.38;1.17;;;14.70;99.90;;;;;;5061361;28;20561;-81
2022/09/20 08:57:29;;;;;;;5.57;1.08;;;14.90;99.90;;;;;;5060996;28;20545;-81
2022/09/20 08:59:58;;;;;;;6.35;1.42;;;15.10;99.90;;;;;;5061403;28;20091;-81
2022/09/20 09:02:24;;;;;;;6.68;1.02;;;15.30;99.90;;;;;;5041539;28;20080;-81
2022/09/20 09:04:52;;;;;;;7.00;1.10;;;15.50;99.90;;;;;;5016450;28;20072;-81
2022/09/20 09:07:20;;;;;;;6.60;1.25;;;15.60;99.90;;;;;;5045747;28;20491;-81
2022/09/20 09:09:48;;;;;;;7.38;0.77;;;15.70;99.90;;;;;;5058211;28;20049;-81
2022/09/20 09:12:26;;;;;;;6.68;0.90;;;15.80;99.90;;;;;;5046097;28;20040;-73
2022/09/20 09:14:58;;;;;;;5.45;1.17;;;15.90;99.90;;;;;;5045226;28;20158;-73
2022/09/20 09:17:28;;;;;;;4.97;0.98;;;16.00;99.90;;;;;;5067201;28;20051;-73
2022/09/20 09:19:57;;;;;;;6.18;0.95;;;16.00;99.90;;;;;;5059396;28;20049;-73
2022/09/20 09:22:28;;;;;;;6.53;1.02;;;16.10;99.90;;;;;;5063424;28;20044;-73
2022/09/20 09:25:22;;;;;;;6.28;1.27;;;16.10;99.90;;;;;;5056720;28;20068;-73
2022/09/20 09:27:52;;;;;;;4.38;0.75;;;16.10;99.90;;;;;;5041298;28;20522;-72
2022/09/20 09:30:25;;;;;;;4.15;0.80;;;16.00;99.90;;;;;;5054905;28;20525;-80
2022/09/20 09:32:55;;;;;;;3.65;0.80;;;16.00;99.90;;;;;;5058630;28;20117;-80
2022/09/20 09:35:30;;;;;;;5.07;0.73;;;16.20;99.90;;;;;;5061266;28;20503;-81
2022/09/20 09:37:59;;;;;;;5.90;0.82;;;16.30;99.90;;;;;;5056797;28;20052;-82
2022/09/20 09:40:26;;;;;;;5.05;1.02;;;16.30;99.90;;;;;;5062631;28;20111;-80
2022/09/20 09:42:55;;;;;;;6.22;1.15;;;16.40;99.90;;;;;;5045733;28;20052;-80
2022/09/20 09:45:37;;;;;;;5.15;0.95;;;16.50;99.90;;;;;;5061906;28;20519;-81
2022/09/20 09:48:17;;;;;;;5.28;0.90;;;16.70;99.90;;;;;;5058613;28;20502;-81
2022/09/20 09:50:43;;;;;;;7.93;1.30;;;16.80;99.90;;;;;;5059002;28;20052;-80
2022/09/20 09:53:22;;;;;;;5.30;1.02;;;16.80;99.90;;;;;;5063268;28;20408;-81
2022/09/20 09:56:24;;;;;;;4.80;0.98;;;16.70;99.90;;;;;;5024061;28;20093;-80
2022/09/20 09:58:57;;;;;;;5.65;1.05;;;16.50;99.90;;;;;;5055122;28;20124;-81
2022/09/20 10:02:03;;;;;;;4.88;1.00;;;16.40;99.90;;;;;;5043374;28;20051;-80
2022/09/20 10:04:41;;;;;;;6.35;1.15;;;16.20;99.90;;;;;;5010088;28;20047;-81
2022/09/20 10:07:24;;;;;;;6.10;0.90;;;16.20;99.90;;;;;;5045928;28;20077;-81
2022/09/20 10:10:08;;;;;;;4.35;0.80;;;16.10;99.90;;;;;;5050350;28;20578;-81
2022/09/20 10:12:42;;;;;;;5.70;1.05;;;15.90;99.90;;;;;;5058879;28;20048;-81
2022/09/20 10:15:21;;;;;;;4.93;1.02;;;15.60;99.90;;;;;;5044906;28;20052;-82
2022/09/20 10:17:50;;;;;;;4.18;1.08;;;15.20;99.90;;;;;;5048695;28;20064;-83
2022/09/20 10:20:24;;;;;;;4.57;1.13;;;14.90;99.90;;;;;;5038312;28;20044;-82
2022/09/20 10:23:02;;;;;;;8.25;1.92;;;14.70;99.90;;;;;;5046848;28;20123;-82
2022/09/20 10:25:53;;;;;;;7.10;1.30;;;14.40;99.90;;;;;;5051187;28;20052;-82
2022/09/20 10:28:53;;;;;;;6.32;1.27;;;14.30;99.90;;;;;;5038599;28;20037;-82
2022/09/20 10:31:36;;;;;;;5.80;1.20;;;14.20;99.90;;;;;;5059619;28;20052;-82
2022/09/20 10:34:14;;;;;;;4.55;0.77;;;14.10;99.90;;;;;;5050861;28;20479;-82
2022/09/20 10:36:55;;;;;;;4.32;0.85;;;14.00;99.90;;;;;;5054930;28;20060;-82
2022/09/20 10:39:36;;;;;;;6.25;1.10;;;14.10;99.90;;;;;;5044076;28;20132;-83
2022/09/20 10:44:58;;;;;;;;;;;14.10;99.90;;;;;;5048592;28;19929;-83
2022/09/20 10:47:48;;;;;;;4.78;0.75;;;14.10;99.90;;;;;;5064085;28;19920;-83
2022/09/20 10:50:44;;;;;;;3.63;0.80;;;14.10;99.90;;;;;;5052165;28;20048;-82
2022/09/20 10:53:49;;;;;;;4.50;0.70;;;14.20;99.90;;;;;;5066235;28;20102;-82
2022/09/20 10:56:48;;;;;;;5.50;0.85;;;14.30;99.90;;;;;;5044373;28;20064;-82
2022/09/20 10:59:47;;;;;;;4.18;0.80;;;14.40;99.90;;;;;;5039083;28;20659;-82
2022/09/20 11:02:24;;;;;;;4.32;0.80;;;14.50;99.90;;;;;;5054401;28;20040;-82
2022/09/20 11:05:22;;;;;;;4.20;0.88;;;14.60;99.90;;;;;;5054024;28;20129;-82
2022/09/20 11:07:58;;;;;;;4.93;0.85;;;14.80;99.90;;;;;;5050554;28;21018;-82
2022/09/20 11:10:42;;;;;;;4.03;0.80;;;14.80;99.90;;;;;;5033182;28;20045;-81
2022/09/20 11:13:31;;;;;;;5.82;1.08;;;14.90;99.90;;;;;;5055625;28;20046;-81
2022/09/20 11:16:14;;;;;;;5.38;1.20;;;15.00;99.90;;;;;;5043408;28;20056;-82
2022/09/20 11:18:45;;;;;;;5.50;0.85;;;15.10;99.90;;;;;;5056720;28;20049;-82
2022/09/20 11:21:23;;;;;;;5.13;1.02;;;15.10;99.90;;;;;;5045143;28;20051;-82
2022/09/20 11:24:14;;;;;;;4.20;1.00;;;15.20;99.90;;;;;;5029738;28;20053;-81
2022/09/20 11:26:46;;;;;;;6.55;1.02;;;15.20;99.90;;;;;;5039375;28;20104;-81
2022/09/20 11:29:34;;;;;;;3.95;0.93;;;15.30;99.90;;;;;;5039250;28;20395;-81
2022/09/20 11:32:31;;;;;;;3.85;0.82;;;15.40;99.90;;;;;;5049248;28;20048;-80
2022/09/20 11:35:36;;;;;;;4.32;0.77;;;15.50;99.90;;;;;;5046232;28;20579;-81
2022/09/20 11:38:31;;;;;;;6.13;1.35;;;15.60;99.90;;;;;;5045386;28;20045;-81
2022/09/20 11:41:00;;;;;;;4.72;0.88;;;15.70;99.90;;;;;;5053966;28;20044;-81
2022/09/20 11:43:29;;;;;;;5.22;1.25;;;15.80;99.90;;;;;;5055036;28;20190;-81
2022/09/20 11:45:59;;;;;;;5.22;0.80;;;16.00;99.90;;;;;;5044145;28;20093;-80
2022/09/20 11:48:35;;;;;;;8.38;1.00;;;16.10;99.90;;;;;;5031895;28;20078;-81
2022/09/20 11:51:30;;;;;;;7.45;0.98;;;16.30;99.90;;;;;;5049199;28;20099;-81
2022/09/20 11:54:27;;;;;;;5.88;1.00;;;16.50;99.90;;;;;;5048241;28;20350;-81
2022/09/20 11:56:55;;;;;;;4.15;1.00;;;16.70;99.90;;;;;;5052147;28;20049;-81
2022/09/20 11:59:34;;;;;;;6.00;1.00;;;16.90;99.90;;;;;;5035785;28;20033;-81
2022/09/20 12:02:03;;;;;;;5.68;0.90;;;17.10;99.90;;;;;;5049046;28;20051;-81
2022/09/20 12:04:33;;;;;;;6.03;1.15;;;17.20;99.90;;;;;;5056560;28;20052;-81
2022/09/20 12:07:02;;;;;;;4.90;0.60;;;17.30;99.90;;;;;;5037649;28;20044;-80
2022/09/20 12:09:37;;;;;;;5.75;1.20;;;17.40;99.90;;;;;;5036445;28;20052;-72
2022/09/20 12:12:40;;;;;;;3.35;0.90;;;17.20;99.90;;;;;;5045706;28;20047;-73
2022/09/20 12:15:38;;;;;;;5.43;0.90;;;17.10;99.90;;;;;;5038646;28;20400;-73
2022/09/20 12:18:07;;;;;;;8.68;1.45;;;16.90;99.90;;;;;;5050611;28;20444;-81
2022/09/20 12:20:43;;;;;;;4.30;0.80;;;16.50;99.90;;;;;;5056193;28;20052;-80
2022/09/20 12:23:39;;;;;;;5.32;0.95;;;16.10;99.90;;;;;;5036883;28;20335;-81
2022/09/20 12:26:20;;;;;;;5.10;0.68;;;15.80;99.90;;;;;;5046330;28;20040;-80
2022/09/20 12:28:52;;;;;;;5.93;0.85;;;15.50;99.90;;;;;;5049439;28;20053;-80
2022/09/20 12:31:20;;;;;;;6.35;0.77;;;15.30;99.90;;;;;;5048884;28;20078;-80
2022/09/20 12:34:12;;;;;;;6.90;1.25;;;15.20;99.90;;;;;;5053321;28;20499;-81
2022/09/20 12:36:42;;;;;;;7.78;1.23;;;15.10;99.90;;;;;;5028852;28;20049;-81
2022/09/20 12:39:10;;;;;;;6.63;1.10;;;15.10;99.90;;;;;;5046579;28;20060;-81
2022/09/20 12:41:56;;;;;;;4.70;0.90;;;15.00;99.90;;;;;;5049081;28;20279;-80
2022/09/20 12:44:37;;;;;;;5.93;0.90;;;15.00;99.90;;;;;;5037168;28;20044;-80
2022/09/20 12:47:08;;;;;;;5.78;0.82;;;15.10;99.90;;;;;;5043618;28;20055;-81
2022/09/20 12:52:50;;;;;;;4.90;0.93;;;15.30;99.90;;;;;;5058624;28;20041;-80
2022/09/20 12:55:25;;;;;;;4.97;1.30;;;15.40;99.90;;;;;;5057760;28;20064;-80
2022/09/20 12:57:54;;;;;;;6.68;0.90;;;15.50;99.90;;;;;;5044901;28;20045;-80
2022/09/20 13:00:45;;;;;;;6.80;1.20;;;15.60;99.90;;;;;;5051691;28;20439;-81
2022/09/20 13:03:37;;;;;;;6.95;1.17;;;15.80;99.90;;;;;;5036010;28;20584;-80
2022/09/20 13:06:16;;;;;;;6.40;1.42;;;15.90;99.90;;;;;;5048482;28;20127;-80
2022/09/20 13:09:00;;;;;;;4.68;1.30;;;16.10;99.90;;;;;;5033364;28;20044;-80
2022/09/20 13:11:40;;;;;;;2.30;0.60;;;16.20;99.90;;;;;;5050261;28;20041;-80
2022/09/20 13:14:13;;;;;;;3.05;0.60;;;16.50;99.90;;;;;;5055475;28;20075;-80
2022/09/20 13:16:53;;;;;;;3.65;0.52;;;16.70;98.30;;;;;;5038371;28;20361;-78
2022/09/20 13:19:21;;;;;;;2.97;0.52;;;16.80;96.70;;;;;;5037523;28;20511;-79
2022/09/20 13:21:59;;;;;;;3.45;0.73;;;16.90;97.10;;;;;;5040387;28;20068;-79
2022/09/20 13:24:29;;;;;;;3.95;0.93;;;16.90;97.90;;;;;;5052627;28;20057;-80
2022/09/20 13:27:01;;;;;;;3.50;0.90;;;16.90;95.70;;;;;;5051930;28;20056;-79
2022/09/20 13:29:41;;;;;;;4.90;0.75;;;16.80;97.80;;;;;;5054095;28;20095;-80
2022/09/20 13:32:24;;;;;;;2.60;0.50;;;16.60;96.20;;;;;;5042901;28;20045;-80
2022/09/20 13:35:08;;;;;;;4.57;1.05;;;16.40;97.00;;;;;;5038451;28;20044;-79
2022/09/20 13:37:43;;;;;;;3.38;0.65;;;16.20;96.80;;;;;;5050874;28;20113;-80
2022/09/20 13:40:19;;;;;;;4.47;0.90;;;16.10;98.70;;;;;;5044970;28;20091;-79
2022/09/20 13:42:47;;;;;;;6.22;1.05;;;16.10;98.70;;;;;;5036710;28;20107;-73
2022/09/20 13:45:15;;;;;;;3.92;0.57;;;16.10;98.80;;;;;;5051484;28;20032;-79
2022/09/20 13:47:42;;;;;;;4.57;0.80;;;16.20;98.40;;;;;;5044423;28;20578;-79
2022/09/20 13:50:17;;;;;;;4.07;0.60;;;16.30;96.70;;;;;;5051522;28;20045;-79
2022/09/20 13:52:46;;;;;;;2.72;0.60;;;16.30;98.00;;;;;;5058777;28;20049;-79
2022/09/20 13:55:29;;;;;;;3.92;0.60;;;16.40;99.60;;;;;;5056648;28;20400;-79
2022/09/20 13:57:59;;;;;;;4.90;0.73;;;16.50;98.80;;;;;;5040582;28;20431;-80
2022/09/20 14:00:26;;;;;;;2.80;0.50;;;16.60;95.30;;;;;;5049931;28;20106;-80
2022/09/20 14:02:53;;;;;;;3.95;0.70;;;16.60;97.20;;;;;;5058842;28;20048;-79